Wawota, Canada
Current Conditions -  °F | °C
As of 4:00 AM on Friday 31 Oct 2014 (Local Time) from CYEN Reporting Station
Few Clouds Few Clouds  
Wind Chill: 12°   Ceiling: Unl
Heat Index: 23°   Visibility: 15mi
Dew Point: 19°   Wind: 10mph
Humidity: 86%   Direction: 130°SE
Pressure: 30.42"   Gusts: NA
Location:  49.9°N, 102.02°W
Report Text: CYEN 311000Z 13009KT 15SM FEW250 M05/M07 A3042 RMK CI0 FROINSLP338
Loading
Personal Weather Stations






























Interactive Weather Map
Tropical Storm Tracking
New forecast layout! Learn more

10-Day Weather Forecast

Advertisements
Track Severe Weather on mobile